sensor_id;sensor_type;location;lat;lon;timestamp;P1;durP1;ratioP1;P2;durP2;ratioP2
9409;SDS011;4744;52.576;13.568;2023-07-29T00:00:40;3.85;;;3.65;;
9409;SDS011;4744;52.576;13.568;2023-07-29T00:03:07;3.97;;;3.67;;
9409;SDS011;4744;52.576;13.568;2023-07-29T00:05:34;3.55;;;3.35;;
9409;SDS011;4744;52.576;13.568;2023-07-29T00:08:01;4.10;;;3.90;;
9409;SDS011;4744;52.576;13.568;2023-07-29T00:10:30;3.63;;;3.42;;
9409;SDS011;4744;52.576;13.568;2023-07-29T00:12:57;3.70;;;3.50;;
9409;SDS011;4744;52.576;13.568;2023-07-29T00:15:25;3.80;;;3.50;;
9409;SDS011;4744;52.576;13.568;2023-07-29T00:17:51;3.92;;;3.72;;
9409;SDS011;4744;52.576;13.568;2023-07-29T00:20:19;4.55;;;4.15;;
9409;SDS011;4744;52.576;13.568;2023-07-29T00:22:45;5.13;;;4.13;;
9409;SDS011;4744;52.576;13.568;2023-07-29T00:25:14;4.00;;;3.70;;
9409;SDS011;4744;52.576;13.568;2023-07-29T00:27:43;3.90;;;3.60;;
9409;SDS011;4744;52.576;13.568;2023-07-29T00:30:10;3.88;;;3.58;;
9409;SDS011;4744;52.576;13.568;2023-07-29T00:32:37;3.53;;;3.33;;
9409;SDS011;4744;52.576;13.568;2023-07-29T00:35:05;4.47;;;4.18;;
9409;SDS011;4744;52.576;13.568;2023-07-29T00:37:32;4.30;;;4.00;;
9409;SDS011;4744;52.576;13.568;2023-07-29T00:39:59;4.50;;;4.20;;
9409;SDS011;4744;52.576;13.568;2023-07-29T00:42:26;5.20;;;4.80;;
9409;SDS011;4744;52.576;13.568;2023-07-29T00:44:54;5.03;;;4.63;;
9409;SDS011;4744;52.576;13.568;2023-07-29T00:47:21;4.85;;;4.45;;
9409;SDS011;4744;52.576;13.568;2023-07-29T00:49:50;5.68;;;5.20;;
9409;SDS011;4744;52.576;13.568;2023-07-29T00:52:17;6.03;;;5.63;;
9409;SDS011;4744;52.576;13.568;2023-07-29T00:54:44;6.22;;;5.68;;
9409;SDS011;4744;52.576;13.568;2023-07-29T00:57:11;5.70;;;5.30;;
9409;SDS011;4744;52.576;13.568;2023-07-29T00:59:41;5.30;;;4.90;;
9409;SDS011;4744;52.576;13.568;2023-07-29T01:02:09;5.07;;;4.78;;
9409;SDS011;4744;52.576;13.568;2023-07-29T01:04:36;5.07;;;4.68;;
9409;SDS011;4744;52.576;13.568;2023-07-29T01:07:07;4.50;;;4.20;;
9409;SDS011;4744;52.576;13.568;2023-07-29T01:09:41;4.50;;;4.20;;
9409;SDS011;4744;52.576;13.568;2023-07-29T01:12:18;5.10;;;4.70;;
9409;SDS011;4744;52.576;13.568;2023-07-29T01:14:51;5.10;;;4.70;;
9409;SDS011;4744;52.576;13.568;2023-07-29T01:17:33;4.55;;;4.25;;
9409;SDS011;4744;52.576;13.568;2023-07-29T01:20:05;4.72;;;4.43;;
9409;SDS011;4744;52.576;13.568;2023-07-29T01:22:34;4.50;;;4.10;;
9409;SDS011;4744;52.576;13.568;2023-07-29T01:25:04;4.47;;;4.18;;
9409;SDS011;4744;52.576;13.568;2023-07-29T01:27:40;4.20;;;3.90;;
9409;SDS011;4744;52.576;13.568;2023-07-29T01:30:08;4.60;;;4.30;;
9409;SDS011;4744;52.576;13.568;2023-07-29T01:32:37;5.28;;;4.88;;
9409;SDS011;4744;52.576;13.568;2023-07-29T01:35:11;5.20;;;4.80;;
9409;SDS011;4744;52.576;13.568;2023-07-29T01:37:47;5.00;;;4.60;;
9409;SDS011;4744;52.576;13.568;2023-07-29T01:40:17;6.20;;;5.70;;
9409;SDS011;4744;52.576;13.568;2023-07-29T01:42:46;5.90;;;5.40;;
9409;SDS011;4744;52.576;13.568;2023-07-29T01:45:13;5.68;;;5.28;;
9409;SDS011;4744;52.576;13.568;2023-07-29T01:47:40;6.53;;;5.97;;
9409;SDS011;4744;52.576;13.568;2023-07-29T01:50:07;5.70;;;5.25;;
9409;SDS011;4744;52.576;13.568;2023-07-29T01:52:35;6.10;;;5.60;;
9409;SDS011;4744;52.576;13.568;2023-07-29T01:55:01;6.30;;;5.80;;
9409;SDS011;4744;52.576;13.568;2023-07-29T01:57:28;6.18;;;5.68;;
9409;SDS011;4744;52.576;13.568;2023-07-29T01:59:57;6.18;;;5.68;;
9409;SDS011;4744;52.576;13.568;2023-07-29T02:02:24;6.55;;;6.05;;
9409;SDS011;4744;52.576;13.568;2023-07-29T02:04:50;7.78;;;7.15;;
9409;SDS011;4744;52.576;13.568;2023-07-29T02:07:17;6.68;;;6.07;;
9409;SDS011;4744;52.576;13.568;2023-07-29T02:09:44;7.28;;;6.68;;
9409;SDS011;4744;52.576;13.568;2023-07-29T02:12:11;6.25;;;5.75;;
9409;SDS011;4744;52.576;13.568;2023-07-29T02:14:38;6.22;;;5.72;;
9409;SDS011;4744;52.576;13.568;2023-07-29T02:17:06;6.00;;;5.40;;
9409;SDS011;4744;52.576;13.568;2023-07-29T02:19:33;6.20;;;5.70;;
9409;SDS011;4744;52.576;13.568;2023-07-29T02:22:00;7.07;;;6.47;;
9409;SDS011;4744;52.576;13.568;2023-07-29T02:24:27;5.85;;;5.35;;
9409;SDS011;4744;52.576;13.568;2023-07-29T02:26:54;6.32;;;5.80;;
9409;SDS011;4744;52.576;13.568;2023-07-29T02:29:21;6.68;;;6.10;;
9409;SDS011;4744;52.576;13.568;2023-07-29T02:31:48;6.07;;;5.57;;
9409;SDS011;4744;52.576;13.568;2023-07-29T02:34:16;6.13;;;5.63;;
9409;SDS011;4744;52.576;13.568;2023-07-29T02:36:43;5.30;;;4.90;;
9409;SDS011;4744;52.576;13.568;2023-07-29T02:39:10;5.22;;;4.82;;
9409;SDS011;4744;52.576;13.568;2023-07-29T02:41:37;5.55;;;5.15;;
9409;SDS011;4744;52.576;13.568;2023-07-29T02:44:04;5.32;;;4.93;;
9409;SDS011;4744;52.576;13.568;2023-07-29T02:46:31;5.07;;;4.68;;
9409;SDS011;4744;52.576;13.568;2023-07-29T02:48:58;5.07;;;4.78;;
9409;SDS011;4744;52.576;13.568;2023-07-29T02:51:26;5.05;;;4.75;;
9409;SDS011;4744;52.576;13.568;2023-07-29T02:53:53;6.85;;;6.35;;
9409;SDS011;4744;52.576;13.568;2023-07-29T02:56:20;6.85;;;6.25;;
9409;SDS011;4744;52.576;13.568;2023-07-29T02:58:47;5.53;;;5.13;;
9409;SDS011;4744;52.576;13.568;2023-07-29T03:01:17;5.90;;;5.40;;
9409;SDS011;4744;52.576;13.568;2023-07-29T03:03:44;7.13;;;6.47;;
9409;SDS011;4744;52.576;13.568;2023-07-29T03:06:13;7.03;;;6.43;;
9409;SDS011;4744;52.576;13.568;2023-07-29T03:08:42;5.68;;;5.18;;
9409;SDS011;4744;52.576;13.568;2023-07-29T03:11:10;5.35;;;4.95;;
9409;SDS011;4744;52.576;13.568;2023-07-29T03:13:39;5.18;;;4.88;;
9409;SDS011;4744;52.576;13.568;2023-07-29T03:16:07;4.20;;;3.90;;
9409;SDS011;4744;52.576;13.568;2023-07-29T03:18:35;3.80;;;3.60;;
9409;SDS011;4744;52.576;13.568;2023-07-29T03:21:02;3.60;;;3.40;;
9409;SDS011;4744;52.576;13.568;2023-07-29T03:23:30;3.72;;;3.50;;
9409;SDS011;4744;52.576;13.568;2023-07-29T03:25:59;4.03;;;3.78;;
9409;SDS011;4744;52.576;13.568;2023-07-29T03:28:31;4.65;;;4.30;;
9409;SDS011;4744;52.576;13.568;2023-07-29T03:30:59;4.15;;;3.85;;
9409;SDS011;4744;52.576;13.568;2023-07-29T03:33:26;4.40;;;4.10;;
9409;SDS011;4744;52.576;13.568;2023-07-29T03:35:53;4.10;;;3.85;;
9409;SDS011;4744;52.576;13.568;2023-07-29T03:38:19;4.28;;;3.97;;
9409;SDS011;4744;52.576;13.568;2023-07-29T03:40:46;3.83;;;3.60;;
9409;SDS011;4744;52.576;13.568;2023-07-29T03:43:15;3.88;;;3.67;;
9409;SDS011;4744;52.576;13.568;2023-07-29T03:45:41;4.40;;;4.10;;
9409;SDS011;4744;52.576;13.568;2023-07-29T03:48:08;3.60;;;3.40;;
9409;SDS011;4744;52.576;13.568;2023-07-29T03:50:35;3.53;;;3.33;;
9409;SDS011;4744;52.576;13.568;2023-07-29T03:53:03;3.50;;;3.30;;
9409;SDS011;4744;52.576;13.568;2023-07-29T03:55:30;4.50;;;4.10;;
9409;SDS011;4744;52.576;13.568;2023-07-29T03:57:58;5.05;;;4.75;;
9409;SDS011;4744;52.576;13.568;2023-07-29T04:00:27;4.47;;;4.18;;
9409;SDS011;4744;52.576;13.568;2023-07-29T04:02:54;4.35;;;4.05;;
9409;SDS011;4744;52.576;13.568;2023-07-29T04:05:21;4.22;;;4.00;;
9409;SDS011;4744;52.576;13.568;2023-07-29T04:07:48;4.03;;;3.72;;
9409;SDS011;4744;52.576;13.568;2023-07-29T04:10:15;3.58;;;3.38;;
9409;SDS011;4744;52.576;13.568;2023-07-29T04:12:42;4.88;;;4.57;;
9409;SDS011;4744;52.576;13.568;2023-07-29T04:15:09;4.72;;;4.43;;
9409;SDS011;4744;52.576;13.568;2023-07-29T04:17:38;4.85;;;4.30;;
9409;SDS011;4744;52.576;13.568;2023-07-29T04:20:05;4.40;;;4.10;;
9409;SDS011;4744;52.576;13.568;2023-07-29T04:22:33;6.13;;;5.65;;
9409;SDS011;4744;52.576;13.568;2023-07-29T04:24:59;5.15;;;4.85;;
9409;SDS011;4744;52.576;13.568;2023-07-29T04:27:26;4.90;;;4.60;;
9409;SDS011;4744;52.576;13.568;2023-07-29T04:29:53;5.88;;;5.47;;
9409;SDS011;4744;52.576;13.568;2023-07-29T04:32:20;5.35;;;4.95;;
9409;SDS011;4744;52.576;13.568;2023-07-29T04:34:48;5.70;;;5.30;;
9409;SDS011;4744;52.576;13.568;2023-07-29T04:37:15;5.80;;;5.40;;
9409;SDS011;4744;52.576;13.568;2023-07-29T04:39:42;6.30;;;5.80;;
9409;SDS011;4744;52.576;13.568;2023-07-29T04:42:09;5.80;;;5.35;;
9409;SDS011;4744;52.576;13.568;2023-07-29T04:44:36;5.65;;;5.25;;
9409;SDS011;4744;52.576;13.568;2023-07-29T04:47:03;7.25;;;6.65;;
9409;SDS011;4744;52.576;13.568;2023-07-29T04:49:30;6.53;;;5.78;;
9409;SDS011;4744;52.576;13.568;2023-07-29T04:51:58;6.50;;;6.00;;
9409;SDS011;4744;52.576;13.568;2023-07-29T04:54:25;5.70;;;5.30;;
9409;SDS011;4744;52.576;13.568;2023-07-29T04:56:52;6.72;;;6.13;;
9409;SDS011;4744;52.576;13.568;2023-07-29T04:59:19;6.43;;;5.93;;
9409;SDS011;4744;52.576;13.568;2023-07-29T05:01:46;6.80;;;6.30;;
9409;SDS011;4744;52.576;13.568;2023-07-29T05:04:13;6.18;;;5.68;;
9409;SDS011;4744;52.576;13.568;2023-07-29T05:06:40;5.45;;;5.15;;
9409;SDS011;4744;52.576;13.568;2023-07-29T05:09:15;7.75;;;7.10;;
9409;SDS011;4744;52.576;13.568;2023-07-29T05:11:42;6.75;;;6.25;;
9409;SDS011;4744;52.576;13.568;2023-07-29T05:14:10;6.75;;;6.15;;
9409;SDS011;4744;52.576;13.568;2023-07-29T05:16:37;6.78;;;6.28;;
9409;SDS011;4744;52.576;13.568;2023-07-29T05:19:04;6.93;;;6.15;;
9409;SDS011;4744;52.576;13.568;2023-07-29T05:21:31;6.43;;;5.93;;
9409;SDS011;4744;52.576;13.568;2023-07-29T05:23:58;6.50;;;6.00;;
9409;SDS011;4744;52.576;13.568;2023-07-29T05:26:26;7.65;;;7.13;;
9409;SDS011;4744;52.576;13.568;2023-07-29T05:28:53;7.75;;;7.15;;
9409;SDS011;4744;52.576;13.568;2023-07-29T05:31:20;7.97;;;7.38;;
9409;SDS011;4744;52.576;13.568;2023-07-29T05:33:48;7.43;;;6.82;;
9409;SDS011;4744;52.576;13.568;2023-07-29T05:36:14;7.53;;;6.82;;
9409;SDS011;4744;52.576;13.568;2023-07-29T05:38:41;6.28;;;5.88;;
9409;SDS011;4744;52.576;13.568;2023-07-29T05:41:08;7.78;;;7.18;;
9409;SDS011;4744;52.576;13.568;2023-07-29T05:43:37;7.45;;;6.85;;
9409;SDS011;4744;52.576;13.568;2023-07-29T05:46:04;8.07;;;7.18;;
9409;SDS011;4744;52.576;13.568;2023-07-29T05:48:30;7.18;;;6.63;;
9409;SDS011;4744;52.576;13.568;2023-07-29T05:50:57;6.18;;;5.78;;
9409;SDS011;4744;52.576;13.568;2023-07-29T05:53:24;6.78;;;6.28;;
9409;SDS011;4744;52.576;13.568;2023-07-29T05:55:51;8.65;;;6.45;;
9409;SDS011;4744;52.576;13.568;2023-07-29T05:58:18;6.88;;;6.32;;
9409;SDS011;4744;52.576;13.568;2023-07-29T06:00:46;6.22;;;5.80;;
9409;SDS011;4744;52.576;13.568;2023-07-29T06:03:13;6.40;;;5.90;;
9409;SDS011;4744;52.576;13.568;2023-07-29T06:05:40;5.82;;;5.43;;
9409;SDS011;4744;52.576;13.568;2023-07-29T06:08:07;5.53;;;5.13;;
9409;SDS011;4744;52.576;13.568;2023-07-29T06:10:34;6.47;;;5.97;;
9409;SDS011;4744;52.576;13.568;2023-07-29T06:13:01;6.47;;;5.97;;
9409;SDS011;4744;52.576;13.568;2023-07-29T06:15:28;6.15;;;5.55;;
9409;SDS011;4744;52.576;13.568;2023-07-29T06:17:56;7.45;;;6.95;;
9409;SDS011;4744;52.576;13.568;2023-07-29T06:20:23;6.70;;;6.10;;
9409;SDS011;4744;52.576;13.568;2023-07-29T06:22:50;6.60;;;5.80;;
9409;SDS011;4744;52.576;13.568;2023-07-29T06:25:17;5.82;;;5.32;;
9409;SDS011;4744;52.576;13.568;2023-07-29T06:27:44;6.65;;;6.10;;
9409;SDS011;4744;52.576;13.568;2023-07-29T06:30:11;6.60;;;6.10;;
9409;SDS011;4744;52.576;13.568;2023-07-29T06:32:38;6.75;;;6.25;;
9409;SDS011;4744;52.576;13.568;2023-07-29T06:35:06;6.00;;;5.50;;
9409;SDS011;4744;52.576;13.568;2023-07-29T06:37:33;5.32;;;4.90;;
9409;SDS011;4744;52.576;13.568;2023-07-29T06:40:00;5.10;;;4.75;;
9409;SDS011;4744;52.576;13.568;2023-07-29T06:42:28;6.13;;;5.68;;
9409;SDS011;4744;52.576;13.568;2023-07-29T06:44:55;5.55;;;5.07;;
9409;SDS011;4744;52.576;13.568;2023-07-29T06:47:22;5.53;;;4.95;;
9409;SDS011;4744;52.576;13.568;2023-07-29T06:49:49;5.20;;;4.80;;
9409;SDS011;4744;52.576;13.568;2023-07-29T06:52:17;5.72;;;5.32;;
9409;SDS011;4744;52.576;13.568;2023-07-29T06:54:44;5.38;;;4.97;;
9409;SDS011;4744;52.576;13.568;2023-07-29T06:57:11;5.93;;;5.53;;
9409;SDS011;4744;52.576;13.568;2023-07-29T06:59:37;4.97;;;4.63;;
9409;SDS011;4744;52.576;13.568;2023-07-29T07:02:05;5.30;;;4.82;;
9409;SDS011;4744;52.576;13.568;2023-07-29T07:04:32;4.60;;;4.28;;
9409;SDS011;4744;52.576;13.568;2023-07-29T07:06:59;5.13;;;4.82;;
9409;SDS011;4744;52.576;13.568;2023-07-29T07:09:27;4.00;;;3.70;;
9409;SDS011;4744;52.576;13.568;2023-07-29T07:11:54;4.30;;;3.90;;
9409;SDS011;4744;52.576;13.568;2023-07-29T07:14:21;3.85;;;3.65;;
9409;SDS011;4744;52.576;13.568;2023-07-29T07:16:48;7.68;;;4.70;;
9409;SDS011;4744;52.576;13.568;2023-07-29T07:19:15;3.92;;;3.72;;
9409;SDS011;4744;52.576;13.568;2023-07-29T07:21:42;4.47;;;4.18;;
9409;SDS011;4744;52.576;13.568;2023-07-29T07:24:09;4.22;;;3.92;;
9409;SDS011;4744;52.576;13.568;2023-07-29T07:26:37;3.50;;;3.30;;
9409;SDS011;4744;52.576;13.568;2023-07-29T07:29:04;4.30;;;4.00;;
9409;SDS011;4744;52.576;13.568;2023-07-29T07:31:32;4.78;;;3.70;;
9409;SDS011;4744;52.576;13.568;2023-07-29T07:34:00;4.43;;;4.10;;
9409;SDS011;4744;52.576;13.568;2023-07-29T07:36:27;4.07;;;3.67;;
9409;SDS011;4744;52.576;13.568;2023-07-29T07:38:54;4.45;;;4.05;;
9409;SDS011;4744;52.576;13.568;2023-07-29T07:41:21;3.80;;;3.60;;
9409;SDS011;4744;52.576;13.568;2023-07-29T07:43:50;4.50;;;4.20;;
9409;SDS011;4744;52.576;13.568;2023-07-29T07:46:17;4.40;;;4.00;;
9409;SDS011;4744;52.576;13.568;2023-07-29T07:48:44;3.58;;;3.35;;
9409;SDS011;4744;52.576;13.568;2023-07-29T07:51:11;5.55;;;4.30;;
9409;SDS011;4744;52.576;13.568;2023-07-29T07:53:38;4.57;;;4.18;;
9409;SDS011;4744;52.576;13.568;2023-07-29T07:56:05;3.85;;;3.55;;
9409;SDS011;4744;52.576;13.568;2023-07-29T07:58:32;4.07;;;3.78;;
9409;SDS011;4744;52.576;13.568;2023-07-29T08:01:04;4.40;;;3.58;;
9409;SDS011;4744;52.576;13.568;2023-07-29T08:03:32;4.40;;;4.00;;
9409;SDS011;4744;52.576;13.568;2023-07-29T08:05:59;4.78;;;4.38;;
9409;SDS011;4744;52.576;13.568;2023-07-29T08:08:27;4.65;;;4.30;;
9409;SDS011;4744;52.576;13.568;2023-07-29T08:10:54;4.68;;;4.38;;
9409;SDS011;4744;52.576;13.568;2023-07-29T08:13:22;4.32;;;4.03;;
9409;SDS011;4744;52.576;13.568;2023-07-29T08:15:52;5.30;;;4.30;;
9409;SDS011;4744;52.576;13.568;2023-07-29T08:18:20;4.22;;;3.90;;
9409;SDS011;4744;52.576;13.568;2023-07-29T08:20:53;4.30;;;4.00;;
9409;SDS011;4744;52.576;13.568;2023-07-29T08:23:23;4.10;;;3.80;;
9409;SDS011;4744;52.576;13.568;2023-07-29T08:25:52;4.07;;;3.83;;
9409;SDS011;4744;52.576;13.568;2023-07-29T08:28:21;4.30;;;4.00;;
9409;SDS011;4744;52.576;13.568;2023-07-29T08:30:48;4.07;;;3.78;;
9409;SDS011;4744;52.576;13.568;2023-07-29T08:33:15;3.88;;;3.67;;
9409;SDS011;4744;52.576;13.568;2023-07-29T08:35:43;3.90;;;3.65;;
9409;SDS011;4744;52.576;13.568;2023-07-29T08:38:10;4.15;;;3.85;;
9409;SDS011;4744;52.576;13.568;2023-07-29T08:40:37;3.80;;;3.60;;
9409;SDS011;4744;52.576;13.568;2023-07-29T08:43:08;3.90;;;3.60;;
9409;SDS011;4744;52.576;13.568;2023-07-29T08:45:38;4.18;;;3.88;;
9409;SDS011;4744;52.576;13.568;2023-07-29T08:48:07;4.30;;;3.60;;
9409;SDS011;4744;52.576;13.568;2023-07-29T08:50:36;3.30;;;3.00;;
9409;SDS011;4744;52.576;13.568;2023-07-29T08:53:05;3.53;;;3.33;;
9409;SDS011;4744;52.576;13.568;2023-07-29T08:55:32;3.85;;;3.58;;
9409;SDS011;4744;52.576;13.568;2023-07-29T08:58:00;3.70;;;3.40;;
9409;SDS011;4744;52.576;13.568;2023-07-29T09:00:27;3.88;;;3.53;;
9409;SDS011;4744;52.576;13.568;2023-07-29T09:02:54;4.07;;;3.78;;
9409;SDS011;4744;52.576;13.568;2023-07-29T09:05:23;3.17;;;2.97;;
9409;SDS011;4744;52.576;13.568;2023-07-29T09:07:50;3.50;;;3.30;;
9409;SDS011;4744;52.576;13.568;2023-07-29T09:10:22;3.40;;;3.20;;
9409;SDS011;4744;52.576;13.568;2023-07-29T09:12:51;3.13;;;2.92;;
9409;SDS011;4744;52.576;13.568;2023-07-29T09:15:28;3.53;;;3.22;;
9409;SDS011;4744;52.576;13.568;2023-07-29T09:17:56;3.08;;;2.83;;
9409;SDS011;4744;52.576;13.568;2023-07-29T09:20:24;3.05;;;2.85;;
9409;SDS011;4744;52.576;13.568;2023-07-29T09:22:52;2.80;;;2.70;;
9409;SDS011;4744;52.576;13.568;2023-07-29T09:25:25;3.00;;;2.80;;
9409;SDS011;4744;52.576;13.568;2023-07-29T09:27:55;2.85;;;2.65;;
9409;SDS011;4744;52.576;13.568;2023-07-29T09:30:25;2.67;;;2.58;;
9409;SDS011;4744;52.576;13.568;2023-07-29T09:32:54;2.92;;;2.70;;
9409;SDS011;4744;52.576;13.568;2023-07-29T09:35:22;3.03;;;2.78;;
9409;SDS011;4744;52.576;13.568;2023-07-29T09:37:50;2.80;;;2.60;;
9409;SDS011;4744;52.576;13.568;2023-07-29T09:40:17;2.80;;;2.60;;
9409;SDS011;4744;52.576;13.568;2023-07-29T09:42:49;2.30;;;2.20;;
9409;SDS011;4744;52.576;13.568;2023-07-29T09:45:20;2.58;;;2.47;;
9409;SDS011;4744;52.576;13.568;2023-07-29T09:47:47;2.28;;;2.17;;
9409;SDS011;4744;52.576;13.568;2023-07-29T09:50:15;2.58;;;2.47;;
9409;SDS011;4744;52.576;13.568;2023-07-29T09:52:42;2.20;;;2.10;;
9409;SDS011;4744;52.576;13.568;2023-07-29T09:55:11;2.80;;;2.63;;
9409;SDS011;4744;52.576;13.568;2023-07-29T09:57:39;2.42;;;2.33;;
9409;SDS011;4744;52.576;13.568;2023-07-29T10:00:09;2.50;;;2.40;;
9409;SDS011;4744;52.576;13.568;2023-07-29T10:02:38;2.95;;;2.75;;
9409;SDS011;4744;52.576;13.568;2023-07-29T10:05:07;2.40;;;2.30;;
9409;SDS011;4744;52.576;13.568;2023-07-29T10:07:35;2.53;;;2.42;;
9409;SDS011;4744;52.576;13.568;2023-07-29T10:10:03;2.70;;;2.40;;
9409;SDS011;4744;52.576;13.568;2023-07-29T10:12:32;2.88;;;2.60;;
9409;SDS011;4744;52.576;13.568;2023-07-29T10:15:00;2.65;;;2.45;;
9409;SDS011;4744;52.576;13.568;2023-07-29T10:17:30;2.33;;;2.15;;
9409;SDS011;4744;52.576;13.568;2023-07-29T10:19:59;2.42;;;2.30;;
9409;SDS011;4744;52.576;13.568;2023-07-29T10:22:27;2.38;;;2.28;;
9409;SDS011;4744;52.576;13.568;2023-07-29T10:25:04;2.60;;;2.50;;
9409;SDS011;4744;52.576;13.568;2023-07-29T10:27:35;2.50;;;2.40;;
9409;SDS011;4744;52.576;13.568;2023-07-29T10:30:09;2.30;;;2.20;;
9409;SDS011;4744;52.576;13.568;2023-07-29T10:32:39;2.30;;;2.20;;
9409;SDS011;4744;52.576;13.568;2023-07-29T10:35:10;2.75;;;2.25;;
9409;SDS011;4744;52.576;13.568;2023-07-29T10:37:37;2.78;;;2.58;;
9409;SDS011;4744;52.576;13.568;2023-07-29T10:40:06;2.40;;;2.30;;
9409;SDS011;4744;52.576;13.568;2023-07-29T10:42:34;2.10;;;2.00;;
9409;SDS011;4744;52.576;13.568;2023-07-29T10:45:17;1.83;;;1.73;;
9409;SDS011;4744;52.576;13.568;2023-07-29T10:47:47;1.88;;;1.85;;
9409;SDS011;4744;52.576;13.568;2023-07-29T10:50:17;2.25;;;2.05;;
9409;SDS011;4744;52.576;13.568;2023-07-29T10:52:48;2.40;;;2.00;;
9409;SDS011;4744;52.576;13.568;2023-07-29T10:55:24;2.00;;;1.90;;
9409;SDS011;4744;52.576;13.568;2023-07-29T10:58:06;2.67;;;2.20;;
9409;SDS011;4744;52.576;13.568;2023-07-29T11:00:35;2.10;;;2.00;;
9409;SDS011;4744;52.576;13.568;2023-07-29T11:03:04;3.08;;;1.73;;
9409;SDS011;4744;52.576;13.568;2023-07-29T11:05:45;1.77;;;1.70;;
9409;SDS011;4744;52.576;13.568;2023-07-29T11:08:18;1.92;;;1.80;;
9409;SDS011;4744;52.576;13.568;2023-07-29T11:10:57;1.90;;;1.80;;
9409;SDS011;4744;52.576;13.568;2023-07-29T11:13:26;1.95;;;1.85;;
9409;SDS011;4744;52.576;13.568;2023-07-29T11:15:54;1.80;;;1.70;;
9409;SDS011;4744;52.576;13.568;2023-07-29T11:18:24;1.95;;;1.85;;
9409;SDS011;4744;52.576;13.568;2023-07-29T11:20:53;2.60;;;1.50;;
9409;SDS011;4744;52.576;13.568;2023-07-29T11:23:21;1.30;;;1.30;;
9409;SDS011;4744;52.576;13.568;2023-07-29T11:25:54;1.55;;;1.48;;
9409;SDS011;4744;52.576;13.568;2023-07-29T11:28:21;1.75;;;1.65;;
9409;SDS011;4744;52.576;13.568;2023-07-29T11:30:49;1.70;;;1.60;;
9409;SDS011;4744;52.576;13.568;2023-07-29T11:33:17;1.30;;;1.25;;
9409;SDS011;4744;52.576;13.568;2023-07-29T11:35:47;1.75;;;1.13;;
9409;SDS011;4744;52.576;13.568;2023-07-29T11:38:15;2.78;;;1.50;;
9409;SDS011;4744;52.576;13.568;2023-07-29T11:40:43;2.97;;;1.55;;
9409;SDS011;4744;52.576;13.568;2023-07-29T11:43:19;2.65;;;1.52;;
9409;SDS011;4744;52.576;13.568;2023-07-29T11:45:46;2.15;;;1.38;;
9409;SDS011;4744;52.576;13.568;2023-07-29T11:48:13;3.65;;;1.30;;
9409;SDS011;4744;52.576;13.568;2023-07-29T11:50:40;1.50;;;1.33;;
9409;SDS011;4744;52.576;13.568;2023-07-29T11:53:08;1.25;;;1.17;;
9409;SDS011;4744;52.576;13.568;2023-07-29T11:55:37;3.00;;;1.27;;
9409;SDS011;4744;52.576;13.568;2023-07-29T11:58:04;1.13;;;1.02;;
9409;SDS011;4744;52.576;13.568;2023-07-29T12:00:31;1.38;;;1.27;;
9409;SDS011;4744;52.576;13.568;2023-07-29T12:02:57;0.77;;;0.77;;
9409;SDS011;4744;52.576;13.568;2023-07-29T12:05:25;1.25;;;0.95;;
9409;SDS011;4744;52.576;13.568;2023-07-29T12:07:53;1.35;;;1.00;;
9409;SDS011;4744;52.576;13.568;2023-07-29T12:10:21;1.02;;;1.02;;
9409;SDS011;4744;52.576;13.568;2023-07-29T12:12:49;1.38;;;1.27;;
9409;SDS011;4744;52.576;13.568;2023-07-29T12:15:23;1.30;;;1.20;;
9409;SDS011;4744;52.576;13.568;2023-07-29T12:17:52;2.63;;;1.15;;
9409;SDS011;4744;52.576;13.568;2023-07-29T12:20:21;0.95;;;0.95;;
9409;SDS011;4744;52.576;13.568;2023-07-29T12:22:51;1.30;;;1.20;;
9409;SDS011;4744;52.576;13.568;2023-07-29T12:25:19;1.00;;;1.00;;
9409;SDS011;4744;52.576;13.568;2023-07-29T12:27:47;0.60;;;0.60;;
9409;SDS011;4744;52.576;13.568;2023-07-29T12:30:14;1.00;;;1.00;;
9409;SDS011;4744;52.576;13.568;2023-07-29T12:32:45;0.85;;;0.85;;
9409;SDS011;4744;52.576;13.568;2023-07-29T12:35:12;1.10;;;1.10;;
9409;SDS011;4744;52.576;13.568;2023-07-29T12:37:39;1.75;;;0.80;;
9409;SDS011;4744;52.576;13.568;2023-07-29T12:40:08;2.05;;;1.20;;
9409;SDS011;4744;52.576;13.568;2023-07-29T12:42:48;1.10;;;1.10;;
9409;SDS011;4744;52.576;13.568;2023-07-29T12:45:16;0.93;;;0.90;;
9409;SDS011;4744;52.576;13.568;2023-07-29T12:47:43;1.35;;;1.25;;
9409;SDS011;4744;52.576;13.568;2023-07-29T12:50:10;1.35;;;0.88;;
9409;SDS011;4744;52.576;13.568;2023-07-29T12:52:37;0.90;;;0.90;;
9409;SDS011;4744;52.576;13.568;2023-07-29T12:55:04;0.80;;;0.80;;
9409;SDS011;4744;52.576;13.568;2023-07-29T12:57:33;1.02;;;1.00;;
9409;SDS011;4744;52.576;13.568;2023-07-29T13:00:02;1.10;;;1.00;;
9409;SDS011;4744;52.576;13.568;2023-07-29T13:02:29;1.35;;;1.10;;
9409;SDS011;4744;52.576;13.568;2023-07-29T13:04:57;1.75;;;1.23;;
9409;SDS011;4744;52.576;13.568;2023-07-29T13:07:24;1.20;;;1.10;;
9409;SDS011;4744;52.576;13.568;2023-07-29T13:09:51;1.17;;;1.10;;
9409;SDS011;4744;52.576;13.568;2023-07-29T13:12:18;2.78;;;1.33;;
9409;SDS011;4744;52.576;13.568;2023-07-29T13:14:45;1.50;;;1.40;;
9409;SDS011;4744;52.576;13.568;2023-07-29T13:17:13;1.50;;;1.40;;
9409;SDS011;4744;52.576;13.568;2023-07-29T13:19:40;1.42;;;1.33;;
9409;SDS011;4744;52.576;13.568;2023-07-29T13:22:07;1.35;;;1.15;;
9409;SDS011;4744;52.576;13.568;2023-07-29T13:24:34;1.33;;;1.23;;
9409;SDS011;4744;52.576;13.568;2023-07-29T13:27:01;1.60;;;1.50;;
9409;SDS011;4744;52.576;13.568;2023-07-29T13:29:27;1.60;;;1.50;;
9409;SDS011;4744;52.576;13.568;2023-07-29T13:31:54;1.42;;;1.40;;
9409;SDS011;4744;52.576;13.568;2023-07-29T13:34:23;1.55;;;1.45;;
9409;SDS011;4744;52.576;13.568;2023-07-29T13:36:49;1.88;;;1.70;;
9409;SDS011;4744;52.576;13.568;2023-07-29T13:39:16;1.67;;;1.58;;
9409;SDS011;4744;52.576;13.568;2023-07-29T13:41:43;1.83;;;1.73;;
9409;SDS011;4744;52.576;13.568;2023-07-29T13:44:10;2.55;;;2.00;;
9409;SDS011;4744;52.576;13.568;2023-07-29T13:46:37;1.85;;;1.75;;
9409;SDS011;4744;52.576;13.568;2023-07-29T13:49:04;3.90;;;3.63;;
9409;SDS011;4744;52.576;13.568;2023-07-29T13:51:32;2.10;;;2.00;;
9409;SDS011;4744;52.576;13.568;2023-07-29T13:53:59;2.40;;;1.90;;
9409;SDS011;4744;52.576;13.568;2023-07-29T13:56:26;1.80;;;1.70;;
9409;SDS011;4744;52.576;13.568;2023-07-29T13:58:53;1.75;;;1.70;;
9409;SDS011;4744;52.576;13.568;2023-07-29T14:01:19;1.60;;;1.55;;
9409;SDS011;4744;52.576;13.568;2023-07-29T14:03:46;1.75;;;1.65;;
9409;SDS011;4744;52.576;13.568;2023-07-29T14:06:13;1.67;;;1.58;;
9409;SDS011;4744;52.576;13.568;2023-07-29T14:08:42;1.80;;;1.70;;
9409;SDS011;4744;52.576;13.568;2023-07-29T14:11:08;1.80;;;1.70;;
9409;SDS011;4744;52.576;13.568;2023-07-29T14:13:35;1.90;;;1.80;;
9409;SDS011;4744;52.576;13.568;2023-07-29T14:16:02;1.50;;;1.50;;
9409;SDS011;4744;52.576;13.568;2023-07-29T14:18:30;1.50;;;1.40;;
9409;SDS011;4744;52.576;13.568;2023-07-29T14:20:56;1.60;;;1.50;;
9409;SDS011;4744;52.576;13.568;2023-07-29T14:23:23;1.20;;;1.02;;
9409;SDS011;4744;52.576;13.568;2023-07-29T14:25:52;0.98;;;0.98;;
9409;SDS011;4744;52.576;13.568;2023-07-29T14:28:19;1.33;;;1.30;;
9409;SDS011;4744;52.576;13.568;2023-07-29T14:30:46;1.58;;;1.10;;
9409;SDS011;4744;52.576;13.568;2023-07-29T14:33:13;1.17;;;1.05;;
9409;SDS011;4744;52.576;13.568;2023-07-29T14:35:39;1.27;;;1.20;;
9409;SDS011;4744;52.576;13.568;2023-07-29T14:38:07;1.35;;;1.25;;
9409;SDS011;4744;52.576;13.568;2023-07-29T14:40:34;1.13;;;1.08;;
9409;SDS011;4744;52.576;13.568;2023-07-29T14:43:02;0.90;;;0.90;;
9409;SDS011;4744;52.576;13.568;2023-07-29T14:45:29;1.00;;;1.00;;
9409;SDS011;4744;52.576;13.568;2023-07-29T14:47:56;1.10;;;1.08;;
9409;SDS011;4744;52.576;13.568;2023-07-29T14:50:22;0.80;;;0.80;;
9409;SDS011;4744;52.576;13.568;2023-07-29T14:52:49;1.38;;;1.27;;
9409;SDS011;4744;52.576;13.568;2023-07-29T14:55:16;0.98;;;0.98;;
9409;SDS011;4744;52.576;13.568;2023-07-29T14:57:43;0.95;;;0.95;;
9409;SDS011;4744;52.576;13.568;2023-07-29T15:00:12;0.90;;;0.90;;
9409;SDS011;4744;52.576;13.568;2023-07-29T15:02:40;1.10;;;1.00;;
9409;SDS011;4744;52.576;13.568;2023-07-29T15:05:07;0.90;;;0.90;;